createdAt,value
2022-10-28T00:03:45.854Z,21.70
2022-10-28T00:08:50.597Z,21.70
2022-10-28T00:13:56.469Z,21.70
2022-10-28T00:19:01.726Z,21.60
2022-10-28T00:24:06.953Z,21.60
2022-10-28T00:29:13.218Z,21.60
2022-10-28T00:34:19.145Z,21.60
2022-10-28T00:39:25.495Z,21.60
2022-10-28T00:44:40.823Z,21.60
2022-10-28T00:49:46.807Z,21.60
2022-10-28T00:54:52.782Z,21.60
2022-10-28T00:59:57.323Z,21.60
2022-10-28T01:05:00.870Z,21.60
2022-10-28T01:10:05.014Z,21.50
2022-10-28T01:15:30.701Z,21.50
2022-10-28T01:20:45.250Z,21.50
2022-10-28T01:26:23.281Z,21.60
2022-10-28T01:31:45.429Z,21.50
2022-10-28T01:36:57.670Z,21.50
2022-10-28T01:42:38.929Z,21.50
2022-10-28T01:47:47.472Z,21.50
2022-10-28T01:52:55.241Z,21.50
2022-10-28T01:58:01.686Z,21.50
2022-10-28T02:03:07.973Z,21.40
2022-10-28T02:08:20.598Z,21.40
2022-10-28T02:13:33.414Z,21.40
2022-10-28T02:18:49.843Z,21.40
2022-10-28T02:23:59.183Z,21.40
2022-10-28T02:29:52.028Z,21.40
2022-10-28T02:35:01.548Z,21.40
2022-10-28T02:40:10.077Z,21.40
2022-10-28T02:45:21.522Z,21.40
2022-10-28T02:50:30.879Z,21.40
2022-10-28T02:55:40.228Z,21.30
2022-10-28T03:00:45.813Z,21.30
2022-10-28T03:05:49.319Z,21.40
2022-10-28T03:10:52.741Z,21.30
2022-10-28T03:15:56.158Z,21.30
2022-10-28T03:20:59.471Z,21.30
2022-10-28T03:26:02.892Z,21.30
2022-10-28T03:31:06.410Z,21.30
2022-10-28T03:36:09.831Z,21.30
2022-10-28T03:41:13.351Z,21.30
2022-10-28T03:46:16.769Z,21.30
2022-10-28T03:51:20.084Z,21.30
2022-10-28T03:56:23.509Z,21.30
2022-10-28T04:01:27.019Z,21.20
2022-10-28T04:06:30.548Z,21.20
2022-10-28T04:11:33.964Z,21.20
2022-10-28T04:16:37.389Z,21.20
2022-10-28T04:21:40.800Z,21.20
2022-10-28T04:26:44.218Z,21.20
2022-10-28T04:31:50.020Z,21.20
2022-10-28T04:36:55.913Z,21.20
2022-10-28T04:41:59.287Z,21.20
2022-10-28T04:47:02.709Z,21.20
2022-10-28T04:52:08.761Z,21.10
2022-10-28T04:57:14.247Z,21.20
2022-10-28T05:02:17.756Z,21.20
2022-10-28T05:07:23.525Z,21.20
2022-10-28T05:12:27.162Z,21.10
2022-10-28T05:17:32.222Z,21.10
2022-10-28T05:22:35.945Z,21.10
2022-10-28T05:27:39.572Z,21.10
2022-10-28T05:32:43.301Z,21.10
2022-10-28T05:37:47.021Z,21.10
2022-10-28T05:42:51.018Z,21.00
2022-10-28T05:48:08.148Z,21.10
2022-10-28T05:53:15.498Z,21.10
2022-10-28T05:58:18.908Z,21.20
2022-10-28T06:03:24.086Z,21.20
2022-10-28T06:08:31.073Z,21.20
2022-10-28T06:13:33.157Z,21.10
2022-10-28T06:18:36.885Z,21.10
2022-10-28T06:23:40.615Z,21.10
2022-10-28T06:28:47.159Z,21.20
2022-10-28T06:33:50.947Z,21.20
2022-10-28T06:38:54.778Z,21.20
2022-10-28T06:43:58.297Z,21.10
2022-10-28T06:49:03.955Z,21.20
2022-10-28T06:54:10.465Z,21.30
2022-10-28T06:59:13.867Z,21.30
2022-10-28T07:04:18.297Z,21.30
2022-10-28T07:09:23.925Z,21.40
2022-10-28T07:14:30.117Z,21.30
2022-10-28T07:19:33.905Z,21.40
2022-10-28T07:24:37.328Z,21.40
2022-10-28T07:29:44.909Z,21.30
2022-10-28T07:34:50.164Z,21.30
2022-10-28T07:39:54.341Z,21.40
2022-10-28T07:45:00.237Z,21.40
2022-10-28T07:50:08.552Z,21.40
2022-10-28T07:55:16.802Z,21.30
2022-10-28T08:00:28.879Z,21.30
2022-10-28T08:05:32.397Z,21.30
2022-10-28T08:10:47.109Z,21.30
2022-10-28T08:15:56.546Z,21.30
2022-10-28T08:21:06.915Z,21.30
2022-10-28T08:26:14.385Z,21.40
2022-10-28T08:31:18.163Z,21.40
2022-10-28T08:36:21.775Z,21.50
2022-10-28T08:41:52.584Z,21.50
2022-10-28T08:47:28.165Z,21.50
2022-10-28T08:52:43.631Z,21.60
2022-10-28T08:57:58.985Z,21.60
2022-10-28T09:03:12.267Z,21.60
2022-10-28T09:08:26.526Z,21.60
2022-10-28T09:13:52.462Z,21.60
2022-10-28T09:19:05.502Z,21.60
2022-10-28T09:24:19.354Z,21.70
2022-10-28T09:29:31.368Z,21.70
2022-10-28T09:34:49.626Z,21.80
2022-10-28T09:40:01.752Z,21.80
2022-10-28T09:45:12.153Z,21.90
2022-10-28T09:50:22.720Z,21.90
2022-10-28T09:55:26.326Z,22.00
2022-10-28T10:00:29.745Z,22.00
2022-10-28T10:05:38.073Z,22.10
2022-10-28T10:11:01.085Z,22.20
2022-10-28T10:16:17.556Z,22.20
2022-10-28T10:21:57.405Z,22.30
2022-10-28T10:27:04.168Z,22.30
2022-10-28T10:32:18.159Z,22.40
2022-10-28T10:37:23.010Z,22.40
2022-10-28T10:42:27.791Z,22.50
2022-10-28T10:47:31.180Z,22.50
2022-10-28T10:52:35.316Z,22.60
2022-10-28T10:57:46.929Z,22.70
2022-10-28T11:02:54.994Z,22.70
2022-10-28T11:08:05.325Z,22.80
2022-10-28T11:13:27.776Z,22.90
2022-10-28T11:18:44.399Z,22.90
2022-10-28T11:23:59.581Z,23.00
2022-10-28T11:29:15.069Z,23.00
2022-10-28T11:34:27.301Z,23.00
2022-10-28T11:39:34.392Z,23.00
2022-10-28T11:44:45.495Z,23.10
2022-10-28T11:50:02.833Z,23.10
2022-10-28T11:55:23.140Z,23.10
2022-10-28T12:00:41.691Z,23.20
2022-10-28T12:06:07.621Z,23.30
2022-10-28T12:11:18.129Z,23.30
2022-10-28T12:16:44.852Z,23.30
2022-10-28T12:21:51.243Z,23.30
2022-10-28T12:27:02.284Z,23.30
2022-10-28T12:32:09.220Z,23.40
2022-10-28T12:37:25.236Z,23.30
2022-10-28T12:42:32.236Z,23.40
2022-10-28T12:47:47.844Z,23.40
2022-10-28T12:52:55.387Z,23.40
2022-10-28T12:58:19.024Z,23.40
2022-10-28T13:03:53.370Z,23.40
2022-10-28T13:09:14.982Z,23.40
2022-10-28T13:14:39.794Z,23.40
2022-10-28T13:20:30.534Z,23.50
2022-10-28T13:25:57.986Z,23.50
2022-10-28T13:31:07.475Z,23.50
2022-10-28T13:36:39.122Z,23.40
2022-10-28T13:41:52.110Z,23.50
2022-10-28T13:47:24.653Z,23.50
2022-10-28T13:52:33.352Z,23.50
2022-10-28T13:57:39.286Z,23.50
2022-10-28T14:02:57.526Z,23.50
2022-10-28T14:08:07.495Z,23.50
2022-10-28T14:13:22.351Z,23.40
2022-10-28T14:18:48.704Z,23.40
2022-10-28T14:24:10.181Z,23.40
2022-10-28T14:29:24.175Z,23.40
2022-10-28T14:34:36.974Z,23.40
2022-10-28T14:39:53.094Z,23.30
2022-10-28T14:45:35.777Z,23.30
2022-10-28T14:50:44.223Z,23.30
2022-10-28T14:56:09.869Z,23.30
2022-10-28T15:01:25.559Z,23.30
2022-10-28T15:06:33.064Z,23.30
2022-10-28T15:11:41.594Z,23.20
2022-10-28T15:16:49.485Z,23.20
2022-10-28T15:22:23.128Z,23.20
2022-10-28T15:27:28.968Z,23.20
2022-10-28T15:32:36.205Z,23.20
2022-10-28T15:37:49.628Z,23.10
2022-10-28T15:43:13.155Z,23.10
2022-10-28T15:48:26.981Z,23.10
2022-10-28T15:53:42.985Z,23.10
2022-10-28T15:59:01.648Z,23.10
2022-10-28T16:04:31.903Z,23.10
2022-10-28T16:09:47.855Z,23.10
2022-10-28T16:15:02.764Z,23.10
2022-10-28T16:20:26.692Z,23.20
2022-10-28T16:25:32.831Z,23.20
2022-10-28T16:30:36.350Z,23.20
2022-10-28T16:35:39.769Z,23.30
2022-10-28T16:40:51.470Z,23.30
2022-10-28T16:45:57.690Z,23.30
2022-10-28T16:51:04.581Z,23.20
2022-10-28T16:56:15.323Z,23.20
2022-10-28T17:01:23.047Z,23.20
2022-10-28T17:06:26.686Z,23.20
2022-10-28T17:16:37.997Z,23.20
2022-10-28T17:21:44.206Z,23.20
2022-10-28T17:26:52.433Z,23.10
2022-10-28T17:31:57.592Z,23.10
2022-10-28T17:37:04.416Z,23.20
2022-10-28T17:42:10.470Z,23.20
2022-10-28T17:47:14.081Z,23.10
2022-10-28T17:52:17.724Z,23.10
2022-10-28T17:57:21.234Z,23.10
2022-10-28T18:02:27.544Z,23.00
2022-10-28T18:07:31.245Z,23.00
2022-10-28T18:12:34.778Z,23.00
2022-10-28T18:17:43.817Z,23.00
2022-10-28T18:22:47.466Z,22.90
2022-10-28T18:27:50.953Z,22.90
2022-10-28T18:32:55.329Z,22.90
2022-10-28T18:38:01.685Z,22.90
2022-10-28T18:43:05.409Z,22.90
2022-10-28T18:48:13.032Z,22.90
2022-10-28T18:53:22.685Z,22.90
2022-10-28T18:58:27.841Z,22.90
2022-10-28T19:03:31.466Z,22.90
2022-10-28T19:08:40.325Z,22.90
2022-10-28T19:13:49.971Z,22.90
2022-10-28T19:18:57.959Z,22.90
2022-10-28T19:29:53.904Z,22.90
2022-10-28T19:35:18.553Z,22.90
2022-10-28T19:40:47.480Z,22.90
2022-10-28T19:46:33.140Z,22.90
2022-10-28T19:51:55.175Z,22.90
2022-10-28T19:57:14.720Z,22.90
2022-10-28T20:02:39.943Z,22.80
2022-10-28T20:07:45.851Z,22.80
2022-10-28T20:12:49.268Z,22.80
2022-10-28T20:17:52.795Z,22.90
2022-10-28T20:22:56.632Z,22.90
2022-10-28T20:28:03.210Z,22.80
2022-10-28T20:33:06.933Z,22.80
2022-10-28T20:38:16.184Z,22.70
2022-10-28T20:43:25.335Z,22.70
2022-10-28T20:48:30.621Z,22.70
2022-10-28T20:53:37.304Z,22.70
2022-10-28T20:58:42.346Z,22.70
2022-10-28T21:03:46.892Z,22.70
2022-10-28T21:08:50.311Z,22.70
2022-10-28T21:13:58.754Z,22.60
2022-10-28T21:19:02.493Z,22.70
2022-10-28T21:24:08.727Z,22.60
2022-10-28T21:29:13.922Z,22.60
2022-10-28T21:34:17.531Z,22.60
2022-10-28T21:39:22.278Z,22.60
2022-10-28T21:44:25.728Z,22.60
2022-10-28T21:49:29.321Z,22.60
2022-10-28T21:54:34.277Z,22.60
2022-10-28T21:59:37.794Z,22.60
2022-10-28T22:04:41.314Z,22.50
2022-10-28T22:09:45.380Z,22.60
2022-10-28T22:14:54.906Z,22.50
2022-10-28T22:19:58.322Z,22.50
2022-10-28T22:25:02.794Z,22.50
2022-10-28T22:30:09.373Z,22.50
2022-10-28T22:35:12.978Z,22.50
2022-10-28T22:40:16.508Z,22.40
2022-10-28T22:45:19.924Z,22.40
2022-10-28T22:50:23.344Z,22.40
2022-10-28T22:55:26.765Z,22.30
2022-10-28T23:00:30.379Z,22.30
2022-10-28T23:05:33.802Z,22.30
2022-10-28T23:10:37.169Z,22.40
2022-10-28T23:15:40.638Z,22.40
2022-10-28T23:20:44.051Z,22.40
2022-10-28T23:25:54.587Z,22.40
2022-10-28T23:31:03.104Z,22.30
2022-10-28T23:36:07.066Z,22.30
2022-10-28T23:41:15.565Z,22.30
2022-10-28T23:46:19.089Z,22.30
2022-10-28T23:51:22.576Z,22.30
2022-10-28T23:56:26.095Z,22.30
